createdAt,value
2018-05-08T00:00:30.271Z,0
2018-05-08T00:01:39.725Z,0
2018-05-08T00:02:49.700Z,0
2018-05-08T00:03:59.680Z,0
2018-05-08T00:05:09.674Z,0
2018-05-08T00:06:19.430Z,0
2018-05-08T00:07:29.145Z,0
2018-05-08T00:08:39.122Z,0
2018-05-08T00:09:49.091Z,0
2018-05-08T00:10:58.892Z,0
2018-05-08T00:12:08.867Z,0
2018-05-08T00:13:18.828Z,0
2018-05-08T00:14:28.531Z,0
2018-05-08T00:15:38.528Z,0
2018-05-08T00:16:47.982Z,0
2018-05-08T00:17:57.951Z,0
2018-05-08T00:19:07.137Z,0
2018-05-08T00:20:17.106Z,0
2018-05-08T00:21:27.087Z,0
2018-05-08T00:22:36.798Z,0
2018-05-08T00:23:46.777Z,0
2018-05-08T00:24:56.483Z,0
2018-05-08T00:26:06.457Z,0
2018-05-08T00:27:16.425Z,0
2018-05-08T00:28:26.398Z,0
2018-05-08T00:29:36.367Z,0
2018-05-08T00:30:46.348Z,0
2018-05-08T00:31:56.332Z,0
2018-05-08T00:33:06.314Z,0
2018-05-08T00:34:15.513Z,0
2018-05-08T00:35:25.560Z,0
2018-05-08T00:36:35.526Z,0
2018-05-08T00:37:45.494Z,0
2018-05-08T00:38:55.477Z,0
2018-05-08T00:40:05.443Z,0
2018-05-08T00:41:15.404Z,0
2018-05-08T00:42:25.380Z,0
2018-05-08T00:43:35.342Z,0
2018-05-08T00:44:45.533Z,0
2018-05-08T00:45:55.495Z,0
2018-05-08T00:47:05.276Z,0
2018-05-08T00:48:14.981Z,0
2018-05-08T00:49:24.713Z,0
2018-05-08T00:50:34.687Z,0
2018-05-08T00:51:44.399Z,0
2018-05-08T00:52:54.372Z,0
2018-05-08T00:54:04.339Z,0
2018-05-08T00:55:14.300Z,0
2018-05-08T00:56:24.271Z,0
2018-05-08T00:57:34.245Z,0
2018-05-08T00:58:43.967Z,0
2018-05-08T00:59:53.936Z,0
2018-05-08T01:01:03.919Z,0
2018-05-08T01:02:13.645Z,0
2018-05-08T01:03:23.350Z,0
2018-05-08T01:04:32.807Z,0
2018-05-08T01:05:42.601Z,0
2018-05-08T01:06:52.307Z,0
2018-05-08T01:08:02.285Z,0
2018-05-08T01:09:12.012Z,0
2018-05-08T01:10:21.999Z,0
2018-05-08T01:11:31.788Z,0
2018-05-08T01:12:41.180Z,0
2018-05-08T01:13:50.889Z,0
2018-05-08T01:15:00.859Z,0
2018-05-08T01:16:10.828Z,0
2018-05-08T01:17:20.555Z,0
2018-05-08T01:18:30.526Z,0
2018-05-08T01:19:40.512Z,0
2018-05-08T01:20:50.264Z,0
2018-05-08T01:21:59.978Z,0
2018-05-08T01:23:09.963Z,0
2018-05-08T01:24:19.936Z,0
2018-05-08T01:25:29.912Z,0
2018-05-08T01:26:39.366Z,0
2018-05-08T01:27:49.422Z,0
2018-05-08T01:28:59.394Z,0
2018-05-08T01:30:09.112Z,0
2018-05-08T01:31:19.093Z,0
2018-05-08T01:32:29.077Z,0
2018-05-08T01:33:38.781Z,0
2018-05-08T01:34:48.743Z,0
2018-05-08T01:35:58.710Z,0
2018-05-08T01:37:08.695Z,0
2018-05-08T01:38:18.407Z,0
2018-05-08T01:39:28.131Z,0
2018-05-08T01:40:38.103Z,0
2018-05-08T01:41:48.174Z,0
2018-05-08T01:42:58.143Z,0
2018-05-08T01:44:08.117Z,0
2018-05-08T01:45:17.847Z,0
2018-05-08T01:46:27.567Z,0
2018-05-08T01:47:37.272Z,0
2018-05-08T01:48:46.461Z,0
2018-05-08T01:49:56.426Z,0
2018-05-08T01:51:06.426Z,0
2018-05-08T01:52:16.400Z,0
2018-05-08T01:53:26.363Z,0
2018-05-08T01:54:36.080Z,0
2018-05-08T01:55:46.044Z,0
2018-05-08T01:56:55.754Z,0
2018-05-08T01:58:05.731Z,0
2018-05-08T01:59:15.723Z,0
2018-05-08T02:00:25.702Z,0
2018-05-08T02:01:35.695Z,0
2018-05-08T02:02:45.406Z,0
2018-05-08T02:03:55.375Z,0
2018-05-08T02:05:05.351Z,0
2018-05-08T02:06:15.323Z,0
2018-05-08T02:07:25.311Z,0
2018-05-08T02:08:35.291Z,0
2018-05-08T02:09:45.008Z,0
2018-05-08T02:10:54.974Z,0
2018-05-08T02:12:04.693Z,0
2018-05-08T02:13:14.141Z,0
2018-05-08T02:14:24.135Z,0
2018-05-08T02:15:33.592Z,0
2018-05-08T02:16:43.041Z,0
2018-05-08T02:17:53.018Z,0
2018-05-08T02:19:02.986Z,0
2018-05-08T02:20:12.696Z,0
2018-05-08T02:21:22.672Z,0
2018-05-08T02:22:32.129Z,0
2018-05-08T02:23:41.593Z,0
2018-05-08T02:24:51.560Z,0
2018-05-08T02:26:01.875Z,0
2018-05-08T02:27:11.931Z,0
2018-05-08T02:28:21.636Z,0
2018-05-08T02:29:31.611Z,0
2018-05-08T02:30:41.646Z,0
2018-05-08T02:31:51.612Z,0
2018-05-08T02:33:01.347Z,0
2018-05-08T02:34:11.316Z,0
2018-05-08T02:35:21.306Z,0
2018-05-08T02:36:30.766Z,0
2018-05-08T02:37:40.736Z,0
2018-05-08T02:38:50.461Z,0
2018-05-08T02:40:00.430Z,0
2018-05-08T02:41:10.407Z,0
2018-05-08T02:42:20.119Z,0
2018-05-08T02:43:30.137Z,0
2018-05-08T02:44:40.109Z,0
2018-05-08T02:45:49.823Z,0
2018-05-08T02:46:59.809Z,0
2018-05-08T02:48:09.809Z,0
2018-05-08T02:49:19.258Z,0
2018-05-08T02:50:29.227Z,0
2018-05-08T02:51:39.220Z,0
2018-05-08T02:52:49.212Z,0
2018-05-08T02:53:59.218Z,0
2018-05-08T02:55:09.214Z,0
2018-05-08T02:56:19.187Z,0
2018-05-08T02:57:29.159Z,0
2018-05-08T02:58:39.135Z,0
2018-05-08T02:59:49.115Z,0
2018-05-08T03:00:58.828Z,0
2018-05-08T03:02:08.997Z,0
2018-05-08T03:03:18.709Z,0
2018-05-08T03:04:28.745Z,0
2018-05-08T03:05:38.460Z,0
2018-05-08T03:06:48.430Z,0
2018-05-08T03:07:58.399Z,0
2018-05-08T03:09:08.469Z,0
2018-05-08T03:10:18.469Z,0
2018-05-08T03:11:28.441Z,5
2018-05-08T03:12:38.417Z,5
2018-05-08T03:13:48.635Z,5
2018-05-08T03:14:58.609Z,5
2018-05-08T03:16:08.594Z,5
2018-05-08T03:17:18.580Z,10
2018-05-08T03:18:28.561Z,10
2018-05-08T03:19:38.287Z,10
2018-05-08T03:20:48.271Z,10
2018-05-08T03:21:57.987Z,15
2018-05-08T03:23:07.684Z,15
2018-05-08T03:24:17.649Z,15
2018-05-08T03:25:27.612Z,20
2018-05-08T03:26:37.381Z,20
2018-05-08T03:27:47.350Z,20
2018-05-08T03:28:57.339Z,25
2018-05-08T03:30:07.307Z,25
2018-05-08T03:31:17.286Z,30
2018-05-08T03:32:27.277Z,30
2018-05-08T03:33:36.979Z,35
2018-05-08T03:34:46.956Z,40
2018-05-08T03:35:56.913Z,40
2018-05-08T03:37:06.896Z,45
2018-05-08T03:38:16.336Z,45
2018-05-08T03:39:26.049Z,50
2018-05-08T03:40:35.752Z,55
2018-05-08T03:41:45.731Z,60
2018-05-08T03:42:55.690Z,55
2018-05-08T03:44:05.439Z,60
2018-05-08T03:45:15.405Z,60
2018-05-08T03:46:25.127Z,65
2018-05-08T03:47:34.842Z,65
2018-05-08T03:48:44.822Z,70
2018-05-08T03:49:54.534Z,70
2018-05-08T03:51:03.977Z,75
2018-05-08T03:52:13.944Z,75
2018-05-08T03:53:23.917Z,80
2018-05-08T03:54:33.881Z,80
2018-05-08T03:55:43.591Z,85
2018-05-08T03:56:53.313Z,85
2018-05-08T03:58:03.032Z,90
2018-05-08T03:59:13.000Z,90
2018-05-08T04:00:22.458Z,95
2018-05-08T04:01:32.437Z,100
2018-05-08T04:02:42.415Z,100
2018-05-08T04:03:52.390Z,105
2018-05-08T04:05:02.366Z,105
2018-05-08T04:06:12.073Z,110
2018-05-08T04:07:22.044Z,110
2018-05-08T04:08:32.444Z,115
2018-05-08T04:09:42.424Z,115
2018-05-08T04:10:52.396Z,120
2018-05-08T04:12:02.375Z,120
2018-05-08T04:13:11.828Z,125
2018-05-08T04:14:21.550Z,125
2018-05-08T04:15:31.396Z,130
2018-05-08T04:16:41.465Z,130
2018-05-08T04:17:51.173Z,130
2018-05-08T04:19:00.878Z,135
2018-05-08T04:20:10.604Z,135
2018-05-08T04:21:20.613Z,140
2018-05-08T04:22:30.609Z,140
2018-05-08T04:23:40.588Z,145
2018-05-08T04:24:50.811Z,145
2018-05-08T04:26:00.782Z,150
2018-05-08T04:27:10.771Z,150
2018-05-08T04:28:20.752Z,150
2018-05-08T04:29:30.710Z,155
2018-05-08T04:30:40.682Z,155
2018-05-08T04:31:50.650Z,160
2018-05-08T04:33:00.624Z,160
2018-05-08T04:34:10.353Z,160
2018-05-08T04:35:20.400Z,165
2018-05-08T04:36:30.189Z,165
2018-05-08T04:37:39.901Z,165
2018-05-08T04:38:49.891Z,170
2018-05-08T04:39:59.851Z,170
2018-05-08T04:41:09.822Z,170
2018-05-08T04:42:19.539Z,175
2018-05-08T04:43:29.510Z,175
2018-05-08T04:44:39.490Z,175
2018-05-08T04:45:49.466Z,180
2018-05-08T04:46:58.948Z,180
2018-05-08T04:48:08.926Z,180
2018-05-08T04:49:18.909Z,185
2018-05-08T04:50:28.901Z,185
2018-05-08T04:51:38.617Z,185
2018-05-08T04:52:48.585Z,190
2018-05-08T04:53:58.554Z,190
2018-05-08T04:55:08.273Z,190
2018-05-08T04:56:18.268Z,195
2018-05-08T04:57:28.256Z,195
2018-05-08T04:58:38.225Z,195
2018-05-08T04:59:48.200Z,195
2018-05-08T05:00:57.911Z,200
2018-05-08T05:02:07.897Z,200
2018-05-08T05:03:17.618Z,200
2018-05-08T05:04:27.324Z,205
2018-05-08T05:05:37.042Z,205
2018-05-08T05:06:47.039Z,205
2018-05-08T05:07:57.015Z,205
2018-05-08T05:09:06.998Z,210
2018-05-08T05:10:16.980Z,210
2018-05-08T05:11:26.960Z,210
2018-05-08T05:12:36.933Z,210
2018-05-08T05:13:46.911Z,215
2018-05-08T05:14:56.902Z,215
2018-05-08T05:16:06.883Z,215
2018-05-08T05:17:16.857Z,215
2018-05-08T05:18:26.863Z,220
2018-05-08T05:19:36.577Z,220
2018-05-08T05:20:46.540Z,220
2018-05-08T05:21:56.288Z,220
2018-05-08T05:23:06.328Z,225
2018-05-08T05:24:15.794Z,225
2018-05-08T05:25:25.833Z,225
2018-05-08T05:26:35.816Z,225
2018-05-08T05:27:46.067Z,225
2018-05-08T05:28:56.043Z,230
2018-05-08T05:30:06.048Z,230
2018-05-08T05:31:16.049Z,230
2018-05-08T05:32:25.520Z,230
2018-05-08T05:33:35.244Z,230
2018-05-08T05:34:45.214Z,230
2018-05-08T05:35:55.184Z,235
2018-05-08T05:37:05.236Z,235
2018-05-08T05:38:15.211Z,235
2018-05-08T05:39:25.175Z,235
2018-05-08T05:40:35.147Z,235
2018-05-08T05:41:44.873Z,235
2018-05-08T05:42:54.774Z,235
2018-05-08T05:44:04.234Z,235
2018-05-08T05:45:14.208Z,235
2018-05-08T05:46:24.196Z,235
2018-05-08T05:47:34.203Z,240
2018-05-08T05:48:44.191Z,240
2018-05-08T05:49:53.938Z,240
2018-05-08T05:51:03.978Z,240
2018-05-08T05:52:13.997Z,240
2018-05-08T05:53:24.426Z,245
2018-05-08T05:54:33.723Z,245
2018-05-08T05:55:43.745Z,245
2018-05-08T05:56:53.454Z,245
2018-05-08T05:58:03.454Z,245
2018-05-08T05:59:13.443Z,245
2018-05-08T06:00:23.456Z,250
2018-05-08T06:01:33.507Z,250
2018-05-08T06:02:43.497Z,250
2018-05-08T06:03:53.490Z,250
2018-05-08T06:05:02.945Z,250
2018-05-08T06:06:12.874Z,250
2018-05-08T06:07:22.880Z,255
2018-05-08T06:08:32.855Z,255
2018-05-08T06:09:42.588Z,255
2018-05-08T06:10:52.315Z,255
2018-05-08T06:12:02.847Z,255
2018-05-08T06:13:12.642Z,255
2018-05-08T06:14:22.632Z,255
2018-05-08T06:15:32.354Z,260
2018-05-08T06:16:42.333Z,260
2018-05-08T06:17:52.330Z,260
2018-05-08T06:19:02.046Z,260
2018-05-08T06:20:12.066Z,260
2018-05-08T06:21:21.785Z,260
2018-05-08T06:22:31.777Z,265
2018-05-08T06:23:41.244Z,265
2018-05-08T06:24:50.718Z,270
2018-05-08T06:26:00.430Z,270
2018-05-08T06:27:10.397Z,270
2018-05-08T06:28:20.399Z,275
2018-05-08T06:29:30.382Z,275
2018-05-08T06:30:40.375Z,275
2018-05-08T06:31:50.370Z,275
2018-05-08T06:33:00.356Z,280
2018-05-08T06:34:10.137Z,280
2018-05-08T06:35:20.097Z,280
2018-05-08T06:36:30.089Z,285
2018-05-08T06:37:40.009Z,285
2018-05-08T06:38:49.456Z,285
2018-05-08T06:39:59.728Z,285
2018-05-08T06:41:09.815Z,290
2018-05-08T06:42:19.854Z,295
2018-05-08T06:43:29.845Z,290
2018-05-08T06:44:39.856Z,290
2018-05-08T06:45:49.841Z,290
2018-05-08T06:47:00.072Z,290
2018-05-08T06:48:09.822Z,290
2018-05-08T06:49:19.808Z,290
2018-05-08T06:50:29.800Z,290
2018-05-08T06:51:39.281Z,295
2018-05-08T06:52:49.311Z,295
2018-05-08T06:53:59.036Z,295
2018-05-08T06:55:08.996Z,295
2018-05-08T06:56:19.060Z,295
2018-05-08T06:57:29.064Z,295
2018-05-08T06:58:39.103Z,295
2018-05-08T06:59:49.111Z,295
2018-05-08T07:00:58.841Z,295
2018-05-08T07:02:08.846Z,295
2018-05-08T07:03:18.584Z,300
2018-05-08T07:04:28.592Z,300
2018-05-08T07:05:38.602Z,300
2018-05-08T07:06:48.793Z,300
2018-05-08T07:07:58.802Z,300
2018-05-08T07:09:08.863Z,300
2018-05-08T07:10:18.687Z,300
2018-05-08T07:11:28.694Z,305
2018-05-08T07:12:38.811Z,305
2018-05-08T07:13:48.822Z,305
2018-05-08T07:14:58.852Z,305
2018-05-08T07:16:10.037Z,305
2018-05-08T07:17:20.149Z,305
2018-05-08T07:18:29.880Z,305
2018-05-08T07:19:39.867Z,305
2018-05-08T07:20:49.845Z,310
2018-05-08T07:21:59.821Z,310
2018-05-08T07:23:09.559Z,310
2018-05-08T07:24:19.566Z,310
2018-05-08T07:25:29.646Z,310
2018-05-08T07:26:39.356Z,310
2018-05-08T07:27:49.331Z,310
2018-05-08T07:28:59.056Z,315
2018-05-08T07:30:09.500Z,315
2018-05-08T07:31:19.292Z,315
2018-05-08T07:32:29.276Z,315
2018-05-08T07:33:39.265Z,315
2018-05-08T07:34:49.260Z,315
2018-05-08T07:35:59.266Z,315
2018-05-08T07:37:09.258Z,320
2018-05-08T07:38:19.604Z,320
2018-05-08T07:39:29.714Z,320
2018-05-08T07:40:38.906Z,320
2018-05-08T07:41:48.886Z,320
2018-05-08T07:42:58.620Z,320
2018-05-08T07:44:08.339Z,320
2018-05-08T07:45:17.802Z,325
2018-05-08T07:46:27.798Z,325
2018-05-08T07:47:37.785Z,325
2018-05-08T07:48:47.512Z,325
2018-05-08T07:49:57.240Z,320
2018-05-08T07:51:07.239Z,325
2018-05-08T07:52:17.374Z,325
2018-05-08T07:53:27.529Z,325
2018-05-08T07:54:37.574Z,325
2018-05-08T07:55:47.306Z,325
2018-05-08T07:56:57.290Z,330
2018-05-08T07:58:07.026Z,330
2018-05-08T07:59:16.772Z,330
2018-05-08T08:00:26.759Z,330
2018-05-08T08:01:36.747Z,330
2018-05-08T08:02:46.750Z,330
2018-05-08T08:03:56.468Z,335
2018-05-08T08:05:06.206Z,335
2018-05-08T08:06:16.203Z,335
2018-05-08T08:07:26.303Z,335
2018-05-08T08:08:35.968Z,335
2018-05-08T08:09:45.702Z,340
2018-05-08T08:10:55.960Z,340
2018-05-08T08:12:05.972Z,340
2018-05-08T08:13:15.726Z,340
2018-05-08T08:14:25.211Z,345
2018-05-08T08:15:34.931Z,345
2018-05-08T08:16:44.936Z,345
2018-05-08T08:17:54.696Z,345
2018-05-08T08:19:04.679Z,350
2018-05-08T08:20:14.680Z,350
2018-05-08T08:21:24.685Z,350
2018-05-08T08:22:34.692Z,355
2018-05-08T08:23:44.509Z,415
2018-05-08T08:24:54.557Z,850
2018-05-08T08:26:04.564Z,1095
2018-05-08T08:27:14.560Z,1045
2018-05-08T08:28:24.555Z,1095
2018-05-08T08:29:34.547Z,1040
2018-05-08T08:30:44.285Z,1045
2018-05-08T08:31:54.284Z,1030
2018-05-08T08:33:04.300Z,1020
2018-05-08T08:34:14.046Z,1145
2018-05-08T08:35:24.049Z,1155
2018-05-08T08:36:33.763Z,1230
2018-05-08T08:37:43.757Z,1295
2018-05-08T08:38:53.497Z,1295
2018-05-08T08:40:03.510Z,1265
2018-05-08T08:41:13.500Z,1280
2018-05-08T08:42:23.235Z,1255
2018-05-08T08:43:32.936Z,1265
2018-05-08T08:44:43.032Z,1375
2018-05-08T08:45:52.777Z,1355
2018-05-08T08:47:02.534Z,1320
2018-05-08T08:48:12.566Z,1415
2018-05-08T08:49:22.558Z,1480
2018-05-08T08:50:32.532Z,1425
2018-05-08T08:51:42.554Z,1370
2018-05-08T08:52:52.309Z,1475
2018-05-08T08:54:02.402Z,1485
2018-05-08T08:55:12.203Z,1520
2018-05-08T08:56:22.199Z,1510
2018-05-08T08:57:31.684Z,1490
2018-05-08T08:58:41.423Z,1560
2018-05-08T08:59:51.421Z,1490
2018-05-08T09:01:00.910Z,1510
2018-05-08T09:02:10.912Z,1595
2018-05-08T09:03:20.923Z,1515
2018-05-08T09:04:30.657Z,1375
2018-05-08T09:05:40.678Z,1510
2018-05-08T09:06:50.680Z,1510
2018-05-08T09:08:00.667Z,1425
2018-05-08T09:09:10.669Z,1520
2018-05-08T09:10:20.758Z,1675
2018-05-08T09:11:30.258Z,1675
2018-05-08T09:12:40.458Z,1655
2018-05-08T09:13:50.218Z,1730
2018-05-08T09:14:59.940Z,1745
2018-05-08T09:16:09.965Z,1600
2018-05-08T09:17:19.973Z,1590
2018-05-08T09:18:29.978Z,1510
2018-05-08T09:19:40.027Z,1435
2018-05-08T09:20:49.789Z,1525
2018-05-08T09:21:59.788Z,1830
2018-05-08T09:23:09.533Z,1610
2018-05-08T09:24:19.527Z,1650
2018-05-08T09:25:29.512Z,1755
2018-05-08T09:26:39.256Z,1660
2018-05-08T09:27:49.377Z,1790
2018-05-08T09:28:59.204Z,2000
2018-05-08T09:30:09.197Z,1795
2018-05-08T09:31:19.211Z,1800
2018-05-08T09:32:29.226Z,1855
2018-05-08T09:33:39.221Z,1850
2018-05-08T09:34:49.222Z,1965
2018-05-08T09:35:58.960Z,1925
2018-05-08T09:37:08.970Z,1965
2018-05-08T09:38:18.970Z,2015
2018-05-08T09:39:28.730Z,1960
2018-05-08T09:40:38.728Z,1970
2018-05-08T09:41:48.480Z,2025
2018-05-08T09:42:58.499Z,2030
2018-05-08T09:44:08.528Z,1940
2018-05-08T09:45:18.559Z,1950
2018-05-08T09:46:28.578Z,2075
2018-05-08T09:47:38.325Z,2015
2018-05-08T09:48:48.450Z,1890
2018-05-08T09:49:58.481Z,1955
2018-05-08T09:51:08.237Z,2100
2018-05-08T09:52:17.993Z,2025
2018-05-08T09:53:28.024Z,1880
2018-05-08T09:54:37.510Z,1995
2018-05-08T09:55:47.538Z,2205
2018-05-08T09:56:57.544Z,2035
2018-05-08T09:58:07.298Z,2180
2018-05-08T09:59:17.033Z,2445
2018-05-08T10:00:26.795Z,2120
2018-05-08T10:01:36.799Z,2040
2018-05-08T10:02:46.814Z,2130
2018-05-08T10:03:56.822Z,2180
2018-05-08T10:05:06.572Z,2120
2018-05-08T10:06:16.596Z,2090
2018-05-08T10:07:26.334Z,2045
2018-05-08T10:08:36.142Z,2375
2018-05-08T10:09:46.172Z,2735
2018-05-08T10:10:56.177Z,2490
2018-05-08T10:12:06.193Z,2265
2018-05-08T10:13:16.219Z,2075
2018-05-08T10:14:26.216Z,2015
2018-05-08T10:15:35.965Z,2200
2018-05-08T10:16:45.433Z,2365
2018-05-08T10:17:55.613Z,2445
2018-05-08T10:19:05.432Z,2390
2018-05-08T10:20:15.186Z,2290
2018-05-08T10:21:25.211Z,2270
2018-05-08T10:22:34.682Z,2305
2018-05-08T10:23:44.428Z,2350
2018-05-08T10:24:54.457Z,2100
2018-05-08T10:26:04.485Z,1765
2018-05-08T10:27:14.519Z,1755
2018-05-08T10:28:24.535Z,2230
2018-05-08T10:29:34.308Z,2495
2018-05-08T10:30:44.089Z,2380
2018-05-08T10:31:53.889Z,2465
2018-05-08T10:33:04.244Z,2435
2018-05-08T10:34:14.250Z,2445
2018-05-08T10:35:23.994Z,2550
2018-05-08T10:36:33.741Z,2450
2018-05-08T10:37:43.766Z,2110
2018-05-08T10:38:53.767Z,2040
2018-05-08T10:40:03.776Z,2210
2018-05-08T10:41:13.770Z,2340
2018-05-08T10:42:23.784Z,2485
2018-05-08T10:43:33.795Z,2575
2018-05-08T10:44:43.783Z,2540
2018-05-08T10:45:53.276Z,2470
2018-05-08T10:47:03.007Z,2485
2018-05-08T10:48:13.012Z,2595
2018-05-08T10:49:23.020Z,2745
2018-05-08T10:50:33.026Z,2905
2018-05-08T10:51:43.041Z,2955
2018-05-08T10:52:53.088Z,2820
2018-05-08T10:54:02.804Z,2670
2018-05-08T10:55:12.558Z,2630
2018-05-08T10:56:22.591Z,2605
2018-05-08T10:57:32.619Z,2625
2018-05-08T10:58:42.617Z,2705
2018-05-08T10:59:52.614Z,2710
2018-05-08T11:01:02.361Z,2645
2018-05-08T11:02:12.368Z,2650
2018-05-08T11:03:21.840Z,2610
2018-05-08T11:04:31.562Z,2590
2018-05-08T11:05:41.551Z,2580
2018-05-08T11:06:51.578Z,2575
2018-05-08T11:08:01.064Z,2640
2018-05-08T11:09:11.089Z,2745
2018-05-08T11:10:21.196Z,2840
2018-05-08T11:11:31.225Z,2865
2018-05-08T11:12:41.397Z,2870
2018-05-08T11:13:51.381Z,2890
2018-05-08T11:15:01.389Z,2860
2018-05-08T11:16:11.640Z,2755
2018-05-08T11:17:21.643Z,2715
2018-05-08T11:18:31.408Z,2765
2018-05-08T11:19:41.566Z,2795
2018-05-08T11:20:51.598Z,2820
2018-05-08T11:22:01.584Z,2910
2018-05-08T11:23:11.609Z,2975
2018-05-08T11:24:21.613Z,2890
2018-05-08T11:25:31.632Z,2850
2018-05-08T11:26:41.791Z,2870
2018-05-08T11:27:51.926Z,2865
2018-05-08T11:29:01.685Z,2830
2018-05-08T11:30:11.669Z,2810
2018-05-08T11:31:21.730Z,2810
2018-05-08T11:32:31.500Z,2870
2018-05-08T11:33:41.731Z,2950
2018-05-08T11:34:52.036Z,2880
2018-05-08T11:36:01.851Z,2835
2018-05-08T11:37:12.213Z,2895
2018-05-08T11:38:22.205Z,2970
2018-05-08T11:39:32.681Z,2885
2018-05-08T11:40:42.170Z,2765
2018-05-08T11:41:51.917Z,2910
2018-05-08T11:43:01.941Z,3045
2018-05-08T11:44:11.951Z,3045
2018-05-08T11:45:21.961Z,3085
2018-05-08T11:46:31.696Z,3230
2018-05-08T11:47:41.688Z,3130
2018-05-08T11:48:51.726Z,3020
2018-05-08T11:50:01.707Z,3025
2018-05-08T11:51:11.708Z,3020
2018-05-08T11:52:21.705Z,2985
2018-05-08T11:53:31.730Z,2980
2018-05-08T11:54:41.465Z,2980
2018-05-08T11:55:51.223Z,3025
2018-05-08T11:57:01.218Z,3080
2018-05-08T11:58:11.214Z,3085
2018-05-08T11:59:20.952Z,2985
2018-05-08T12:00:30.963Z,2960
2018-05-08T12:01:40.701Z,3040
2018-05-08T12:02:50.361Z,3135
2018-05-08T12:04:00.410Z,3125
2018-05-08T12:05:10.427Z,2790
2018-05-08T12:06:20.469Z,2305
2018-05-08T12:07:30.469Z,2055
2018-05-08T12:08:40.492Z,1920
2018-05-08T12:09:50.498Z,2235
2018-05-08T12:11:00.496Z,2615
2018-05-08T12:12:10.500Z,2670
2018-05-08T12:13:20.520Z,2760
2018-05-08T12:14:30.471Z,3060
2018-05-08T12:15:40.248Z,3215
2018-05-08T12:16:50.258Z,3190
2018-05-08T12:18:00.271Z,3180
2018-05-08T12:19:10.086Z,3140
2018-05-08T12:20:20.135Z,3175
2018-05-08T12:21:30.198Z,3220
2018-05-08T12:22:39.948Z,3290
2018-05-08T12:23:49.971Z,3290
2018-05-08T12:24:59.967Z,3240
2018-05-08T12:26:09.737Z,3230
2018-05-08T12:27:19.762Z,3205
2018-05-08T12:28:29.512Z,3215
2018-05-08T12:29:39.530Z,3200
2018-05-08T12:30:49.717Z,3190
2018-05-08T12:31:59.715Z,3265
2018-05-08T12:33:09.488Z,3185
2018-05-08T12:34:19.500Z,3070
2018-05-08T12:35:29.507Z,3035
2018-05-08T12:36:39.499Z,2985
2018-05-08T12:37:49.234Z,3000
2018-05-08T12:38:59.255Z,3135
2018-05-08T12:40:08.982Z,3030
2018-05-08T12:41:18.982Z,2800
2018-05-08T12:42:28.986Z,2815
2018-05-08T12:43:38.749Z,3040
2018-05-08T12:44:48.740Z,3090
2018-05-08T12:45:58.735Z,3095
2018-05-08T12:47:08.229Z,3130
2018-05-08T12:48:18.501Z,3150
2018-05-08T12:49:28.509Z,3105
2018-05-08T12:50:38.543Z,3105
2018-05-08T12:51:48.296Z,3210
2018-05-08T12:52:58.047Z,3215
2018-05-08T12:54:07.769Z,3150
2018-05-08T12:55:17.782Z,3210
2018-05-08T12:56:27.793Z,3220
2018-05-08T12:57:37.795Z,3130
2018-05-08T12:58:47.787Z,3095
2018-05-08T12:59:57.801Z,3165
2018-05-08T13:01:07.850Z,3135
2018-05-08T13:02:17.619Z,3185
2018-05-08T13:03:27.116Z,3275
2018-05-08T13:04:37.118Z,3350
2018-05-08T13:05:47.119Z,3340
2018-05-08T13:06:57.118Z,3270
2018-05-08T13:08:07.113Z,3220
2018-05-08T13:09:17.128Z,3180
2018-05-08T13:10:26.879Z,3175
2018-05-08T13:11:36.886Z,3210
2018-05-08T13:12:46.638Z,3225
2018-05-08T13:13:56.648Z,3145
2018-05-08T13:15:06.661Z,3140
2018-05-08T13:16:16.672Z,3170
2018-05-08T13:17:26.674Z,3025
2018-05-08T13:18:36.671Z,2925
2018-05-08T13:19:46.414Z,2970
2018-05-08T13:20:56.442Z,3080
2018-05-08T13:22:06.206Z,3020
2018-05-08T13:23:16.211Z,3015
2018-05-08T13:24:26.487Z,2960
2018-05-08T13:25:36.493Z,2800
2018-05-08T13:26:46.655Z,2845
2018-05-08T13:27:56.923Z,2985
2018-05-08T13:29:06.929Z,3015
2018-05-08T13:30:16.944Z,3085
2018-05-08T13:31:26.959Z,3130
2018-05-08T13:32:36.432Z,3105
2018-05-08T13:33:46.471Z,3165
2018-05-08T13:34:56.487Z,3250
2018-05-08T13:36:06.516Z,3325
2018-05-08T13:37:16.561Z,3140
2018-05-08T13:38:26.659Z,2980
2018-05-08T13:39:36.663Z,3050
2018-05-08T13:40:46.674Z,2945
2018-05-08T13:41:56.844Z,2635
2018-05-08T13:43:06.573Z,2765
2018-05-08T13:44:16.316Z,3035
2018-05-08T13:45:26.305Z,3075
2018-05-08T13:46:35.773Z,3095
2018-05-08T13:47:44.989Z,3145
2018-05-08T13:48:54.994Z,3165
2018-05-08T13:50:05.022Z,3155
2018-05-08T13:51:15.069Z,3120
2018-05-08T13:52:24.763Z,3060
2018-05-08T13:53:34.787Z,2850
2018-05-08T13:54:44.541Z,2465
2018-05-08T13:55:54.537Z,2335
2018-05-08T13:57:04.540Z,2775
2018-05-08T13:58:14.288Z,3185
2018-05-08T13:59:24.282Z,3250
2018-05-08T14:00:34.028Z,3155
2018-05-08T14:01:44.020Z,3050
2018-05-08T14:02:53.767Z,3080
2018-05-08T14:04:03.799Z,3180
2018-05-08T14:05:13.831Z,3180
2018-05-08T14:06:23.858Z,3120
2018-05-08T14:07:33.887Z,3010
2018-05-08T14:08:43.376Z,2890
2018-05-08T14:09:53.369Z,2910
2018-05-08T14:11:03.110Z,3005
2018-05-08T14:12:13.196Z,3090
2018-05-08T14:13:23.203Z,3160
2018-05-08T14:14:33.220Z,3140
2018-05-08T14:15:43.218Z,3075
2018-05-08T14:16:52.992Z,3030
2018-05-08T14:18:02.991Z,2970
2018-05-08T14:19:12.474Z,2920
2018-05-08T14:20:22.229Z,2930
2018-05-08T14:21:32.240Z,3070
2018-05-08T14:22:41.732Z,3215
2018-05-08T14:23:51.741Z,3025
2018-05-08T14:25:01.771Z,2870
2018-05-08T14:26:11.212Z,2785
2018-05-08T14:27:21.202Z,2740
2018-05-08T14:28:30.948Z,2725
2018-05-08T14:29:40.697Z,2615
2018-05-08T14:30:50.694Z,2535
2018-05-08T14:32:00.445Z,2625
2018-05-08T14:33:10.436Z,2725
2018-05-08T14:34:20.181Z,2800
2018-05-08T14:35:30.180Z,2825
2018-05-08T14:36:40.180Z,2780
2018-05-08T14:37:50.190Z,2715
2018-05-08T14:38:59.913Z,2700
2018-05-08T14:40:09.924Z,2720
2018-05-08T14:41:19.664Z,2650
2018-05-08T14:42:29.661Z,2520
2018-05-08T14:43:40.020Z,2530
2018-05-08T14:44:49.778Z,2645
2018-05-08T14:45:59.778Z,2680
2018-05-08T14:47:09.525Z,2705
2018-05-08T14:48:19.270Z,2770
2018-05-08T14:49:29.636Z,2690
2018-05-08T14:50:39.677Z,2620
2018-05-08T14:51:49.406Z,2605
2018-05-08T14:52:59.417Z,2620
2018-05-08T14:54:09.504Z,2615
2018-05-08T14:55:19.497Z,2605
2018-05-08T14:56:29.517Z,2560
2018-05-08T14:57:39.517Z,2460
2018-05-08T14:58:49.597Z,2450
2018-05-08T14:59:59.417Z,2560
2018-05-08T15:01:09.250Z,2570
2018-05-08T15:02:19.236Z,2580
2018-05-08T15:03:29.284Z,2535
2018-05-08T15:04:39.134Z,2475
2018-05-08T15:05:48.873Z,2435
2018-05-08T15:06:58.862Z,2420
2018-05-08T15:08:08.853Z,2470
2018-05-08T15:09:18.874Z,2500
2018-05-08T15:10:28.878Z,2465
2018-05-08T15:11:38.692Z,2420
2018-05-08T15:12:48.729Z,2330
2018-05-08T15:13:58.771Z,2340
2018-05-08T15:15:08.842Z,2390
2018-05-08T15:16:18.869Z,2400
2018-05-08T15:17:28.595Z,2335
2018-05-08T15:18:38.607Z,2320
2018-05-08T15:19:48.683Z,2385
2018-05-08T15:20:58.700Z,2430
2018-05-08T15:22:08.438Z,2390
2018-05-08T15:23:18.180Z,2360
2018-05-08T15:24:28.169Z,2370
2018-05-08T15:25:38.177Z,2330
2018-05-08T15:26:47.651Z,2295
2018-05-08T15:27:57.642Z,2250
2018-05-08T15:29:08.080Z,2225
2018-05-08T15:30:18.084Z,2245
2018-05-08T15:31:28.118Z,2240
2018-05-08T15:32:38.095Z,2030
2018-05-08T15:33:47.837Z,1875
2018-05-08T15:34:57.870Z,1960
2018-05-08T15:36:07.874Z,2150
2018-05-08T15:37:17.880Z,2155
2018-05-08T15:38:27.649Z,2095
2018-05-08T15:39:37.667Z,2115
2018-05-08T15:40:47.404Z,2080
2018-05-08T15:41:57.410Z,2015
2018-05-08T15:43:07.217Z,2010
2018-05-08T15:44:17.222Z,2050
2018-05-08T15:45:27.218Z,2020
2018-05-08T15:46:37.212Z,1960
2018-05-08T15:47:47.195Z,1935
2018-05-08T15:48:57.011Z,1860
2018-05-08T15:50:07.005Z,1725
2018-05-08T15:51:16.481Z,1715
2018-05-08T15:52:26.205Z,1790
2018-05-08T15:53:36.193Z,1885
2018-05-08T15:54:45.664Z,1890
2018-05-08T15:55:55.671Z,1860
2018-05-08T15:57:05.135Z,1830
2018-05-08T15:58:15.112Z,1810
2018-05-08T15:59:25.124Z,1840
2018-05-08T16:00:35.132Z,1830
2018-05-08T16:01:44.862Z,1755